Time;durP1;ratioP1;P1;durP2;ratioP2;P2;SDS_P1;SDS_P2;PMS_P1;PMS_P2;Temp;Humidity;BMP_temperature;BMP_pressure;BME280_temperature;BME280_humidity;BME280_pressure;Samples;Min_cycle;Max_cycle;Signal;HPM_P1;HPM_P2
2023/08/08 00:00:11;;;;;;;2.63;0.80;;;;;;;16.38;68.15;99555.00;337075;28;4873;-67
2023/08/08 00:00:24;;;;;;;2.40;0.70;;;;;;;16.38;67.86;99560.25;329382;28;5446;-66
2023/08/08 00:00:36;;;;;;;0.80;0.60;;;;;;;16.41;67.87;99558.41;337209;28;5200;-66
2023/08/08 00:00:48;;;;;;;0.60;0.60;;;;;;;16.40;67.87;99559.31;335113;28;12211;-66
2023/08/08 00:01:00;;;;;;;0.75;0.65;;;;;;;16.41;68.01;99561.00;334520;28;17831;-66
2023/08/08 00:01:12;;;;;;;0.70;0.60;;;;;;;16.41;67.84;99558.41;337636;28;4572;-66
2023/08/08 00:01:24;;;;;;;0.60;0.50;;;;;;;16.40;67.92;99554.06;334820;28;18557;-68
2023/08/08 00:01:36;;;;;;;1.20;0.70;;;;;;;16.41;68.03;99558.41;337533;28;5202;-65
2023/08/08 00:01:48;;;;;;;1.33;0.73;;;;;;;16.41;68.02;99563.63;333899;28;16228;-66
2023/08/08 00:02:00;;;;;;;1.13;0.70;;;;;;;16.41;67.88;99558.41;337054;28;5260;-66
2023/08/08 00:02:12;;;;;;;0.57;0.57;;;;;;;16.42;67.83;99565.31;337269;28;8249;-67
2023/08/08 00:02:24;;;;;;;0.50;0.50;;;;;;;16.42;67.81;99560.06;336093;28;11650;-66
2023/08/08 00:02:36;;;;;;;0.47;0.47;;;;;;;16.41;68.07;99561.84;335611;28;18181;-66
2023/08/08 00:02:48;;;;;;;0.40;0.40;;;;;;;16.40;67.68;99556.69;333516;28;12188;-66
2023/08/08 00:03:01;;;;;;;0.40;0.40;;;;;;;16.37;67.63;99558.56;336064;28;18083;-67
2023/08/08 00:03:13;;;;;;;0.50;0.50;;;;;;;16.38;67.78;99560.25;337432;28;4643;-67
2023/08/08 00:03:25;;;;;;;0.73;0.60;;;;;;;16.40;67.66;99559.31;335172;28;18177;-66
2023/08/08 00:03:38;;;;;;;0.85;0.70;;;;;;;16.39;67.84;99561.09;337160;28;4666;-66
2023/08/08 00:03:50;;;;;;;0.60;0.55;;;;;;;16.40;67.75;99561.94;328928;28;19282;-66
2023/08/08 00:04:02;;;;;;;0.60;0.50;;;;;;;16.40;67.72;99560.19;336125;28;4806;-67
2023/08/08 00:04:14;;;;;;;0.50;0.43;;;;;;;16.42;67.95;99565.31;334299;28;18086;-65
2023/08/08 00:04:26;;;;;;;0.40;0.40;;;;;;;16.44;68.10;99558.19;336405;28;4684;-66
2023/08/08 00:04:38;;;;;;;0.43;0.43;;;;;;;16.44;68.05;99559.06;335219;28;11471;-66
2023/08/08 00:04:50;;;;;;;0.65;0.50;;;;;;;16.42;67.82;99560.94;337825;28;4572;-67
2023/08/08 00:05:03;;;;;;;1.00;0.70;;;;;;;16.44;67.95;99560.81;337098;28;4594;-67
2023/08/08 00:05:15;;;;;;;0.90;0.60;;;;;;;16.46;68.09;99565.06;334584;28;12532;-66
2023/08/08 00:05:27;;;;;;;0.60;0.43;;;;;;;16.50;68.37;99568.34;337727;28;4586;-67
2023/08/08 00:05:39;;;;;;;0.63;0.45;;;;;;;16.49;68.36;99566.66;335206;28;4625;-67
2023/08/08 00:05:51;;;;;;;0.52;0.40;;;;;;;16.49;68.51;99564.88;337338;28;4720;-66
2023/08/08 00:06:03;;;;;;;0.43;0.30;;;;;;;16.49;68.67;99569.28;336973;28;4564;-66
2023/08/08 00:06:15;;;;;;;0.43;0.30;;;;;;;16.50;68.79;99563.09;334727;28;17859;-67
2023/08/08 00:06:27;;;;;;;0.60;0.40;;;;;;;16.49;68.69;99567.50;337679;28;5156;-66
2023/08/08 00:06:39;;;;;;;0.70;0.40;;;;;;;16.50;68.59;99560.47;337399;28;4531;-66
2023/08/08 00:06:51;;;;;;;0.52;0.40;;;;;;;16.49;68.57;99562.25;334187;28;18183;-67
2023/08/08 00:07:03;;;;;;;0.40;0.40;;;;;;;16.50;68.75;99566.56;337027;28;4698;-66
2023/08/08 00:07:15;;;;;;;0.40;0.40;;;;;;;16.49;69.00;99567.50;334450;28;17718;-67
2023/08/08 00:07:30;;;;;;;0.40;0.40;;;;;;;16.47;69.33;99568.53;338254;28;4874;-67
2023/08/08 00:07:42;;;;;;;0.40;0.40;;;;;;;16.47;69.08;99565.91;334971;28;18424;-65
2023/08/08 00:07:54;;;;;;;0.40;0.40;;;;;;;16.46;69.06;99565.06;337376;28;4583;-65
2023/08/08 00:08:06;;;;;;;0.50;0.47;;;;;;;16.46;69.11;99562.44;334119;28;18305;-66
2023/08/08 00:08:18;;;;;;;0.73;0.50;;;;;;;16.47;69.14;99563.28;332375;28;5569;-66
2023/08/08 00:08:30;;;;;;;0.70;0.50;;;;;;;16.47;69.25;99573.78;337119;28;4540;-66
2023/08/08 00:08:42;;;;;;;0.93;0.47;;;;;;;16.47;69.15;99565.91;332334;28;18452;-66
2023/08/08 00:08:54;;;;;;;0.77;0.50;;;;;;;16.46;69.21;99567.69;337305;28;5010;-67
2023/08/08 00:09:06;;;;;;;0.60;0.50;;;;;;;16.45;69.24;99567.78;335140;28;12000;-66
2023/08/08 00:09:18;;;;;;;0.50;0.50;;;;;;;16.45;68.94;99570.41;337516;28;5539;-66
2023/08/08 00:09:30;;;;;;;0.50;0.50;;;;;;;16.44;69.23;99566.06;337400;28;10635;-66
2023/08/08 00:09:42;;;;;;;0.50;0.50;;;;;;;16.44;69.11;99566.94;329741;28;19109;-66
2023/08/08 00:09:54;;;;;;;0.50;0.47;;;;;;;16.44;68.79;99573.94;339173;28;4515;-65
2023/08/08 00:10:07;;;;;;;0.45;0.45;;;;;;;16.44;69.00;99574.81;335034;28;19756;-66
2023/08/08 00:10:19;;;;;;;0.50;0.50;;;;;;;16.42;68.86;99567.94;337538;28;4663;-67
2023/08/08 00:10:31;;;;;;;0.50;0.50;;;;;;;16.43;69.08;99567.03;335359;28;12718;-67
2023/08/08 00:10:43;;;;;;;0.50;0.50;;;;;;;16.42;69.15;99570.56;337805;28;4600;-66
2023/08/08 00:10:55;;;;;;;0.55;0.50;;;;;;;16.42;69.08;99570.56;338731;28;4716;-67
2023/08/08 00:11:07;;;;;;;0.65;0.50;;;;;;;16.42;68.93;99570.56;334674;28;11694;-66
2023/08/08 00:11:19;;;;;;;0.90;0.50;;;;;;;16.43;68.83;99574.88;336825;28;4599;-66
2023/08/08 00:11:31;;;;;;;1.05;0.60;;;;;;;16.42;68.90;99568.81;334719;28;11771;-67
2023/08/08 00:11:43;;;;;;;1.13;0.60;;;;;;;16.43;69.08;99575.72;337633;28;4526;-67
2023/08/08 00:11:56;;;;;;;1.98;0.68;;;;;;;16.43;68.69;99572.25;337967;28;5257;-67
2023/08/08 00:12:09;;;;;;;1.50;0.50;;;;;;;16.43;69.11;99574.88;334342;28;18078;-67
2023/08/08 00:12:21;;;;;;;0.60;0.50;;;;;;;16.41;69.09;99568.88;337461;28;5085;-66
2023/08/08 00:12:33;;;;;;;1.70;0.60;;;;;;;16.41;69.09;99574.97;333124;28;17954;-67
2023/08/08 00:12:45;;;;;;;1.90;0.68;;;;;;;16.40;69.33;99575.06;335786;28;5263;-67
2023/08/08 00:12:57;;;;;;;1.55;0.60;;;;;;;16.37;69.57;99569.06;332243;28;12597;-66
2023/08/08 00:13:09;;;;;;;0.55;0.47;;;;;;;16.36;69.56;99562.13;334626;28;17287;-67
2023/08/08 00:13:22;;;;;;;0.60;0.40;;;;;;;16.36;69.41;99570.00;336632;28;4658;-68
2023/08/08 00:13:34;;;;;;;0.82;0.55;;;;;;;16.35;69.50;99570.91;334075;28;17588;-65
2023/08/08 00:13:46;;;;;;;0.75;0.60;;;;;;;16.34;69.68;99563.16;337789;28;4593;-67
2023/08/08 00:13:58;;;;;;;0.82;0.63;;;;;;;16.32;69.47;99565.03;335140;28;19152;-66
2023/08/08 00:14:10;;;;;;;0.70;0.60;;;;;;;16.31;69.89;99566.78;332784;28;4673;-65
2023/08/08 00:14:23;;;;;;;0.60;0.60;;;;;;;16.31;69.51;99563.31;337515;28;4564;-66
2023/08/08 00:14:35;;;;;;;0.52;0.50;;;;;;;16.32;69.84;99570.28;333697;28;18146;-67
2023/08/08 00:14:47;;;;;;;1.30;0.50;;;;;;;16.29;69.83;99565.19;336430;28;4501;-67
2023/08/08 00:14:59;;;;;;;1.60;0.50;;;;;;;16.27;69.92;99567.91;333737;28;19818;-67
2023/08/08 00:15:11;;;;;;;1.30;0.50;;;;;;;16.25;69.95;99567.13;336205;28;5390;-66
2023/08/08 00:15:23;;;;;;;0.55;0.50;;;;;;;16.21;69.53;99568.25;333852;28;18379;-67
2023/08/08 00:15:36;;;;;;;0.50;0.50;;;;;;;16.22;69.65;99572.56;335963;28;4703;-66
2023/08/08 00:15:48;;;;;;;0.50;0.40;;;;;;;16.23;69.38;99571.63;334318;28;19346;-66
2023/08/08 00:16:00;;;;;;;0.63;0.47;;;;;;;16.22;69.54;99569.94;337005;28;4619;-66
2023/08/08 00:16:12;;;;;;;0.95;0.70;;;;;;;16.26;69.39;99565.34;337319;28;7178;-66
2023/08/08 00:16:24;;;;;;;0.90;0.60;;;;;;;16.25;69.46;99559.28;334609;28;17939;-66
2023/08/08 00:16:36;;;;;;;0.43;0.38;;;;;;;16.26;69.29;99560.09;337829;28;5058;-66
2023/08/08 00:16:48;;;;;;;0.40;0.40;;;;;;;16.26;69.46;99566.22;334809;28;18038;-66
2023/08/08 00:17:00;;;;;;;0.55;0.55;;;;;;;16.26;69.33;99563.59;337634;28;4693;-66
2023/08/08 00:17:12;;;;;;;0.50;0.50;;;;;;;16.27;69.42;99557.41;332737;28;4602;-66
2023/08/08 00:17:24;;;;;;;0.40;0.40;;;;;;;16.31;69.40;99566.78;334111;28;12034;-66
2023/08/08 00:17:36;;;;;;;0.40;0.40;;;;;;;16.31;68.89;99564.16;336166;28;4655;-66
2023/08/08 00:17:49;;;;;;;0.40;0.40;;;;;;;16.30;68.87;99562.50;333833;28;12236;-66
2023/08/08 00:18:01;;;;;;;0.60;0.50;;;;;;;16.29;68.99;99560.78;335597;28;4515;-69
2023/08/08 00:18:13;;;;;;;0.47;0.40;;;;;;;16.27;69.19;99559.19;336661;28;4674;-66
2023/08/08 00:18:25;;;;;;;0.50;0.50;;;;;;;16.26;69.18;99563.59;329541;28;18191;-67
2023/08/08 00:18:37;;;;;;;0.50;0.50;;;;;;;16.25;69.30;99561.88;337683;28;4812;-67
2023/08/08 00:18:52;;;;;;;0.40;0.40;;;;;;;16.25;69.46;99567.13;332678;28;18073;-67
2023/08/08 00:19:04;;;;;;;0.43;0.40;;;;;;;16.24;69.47;99565.47;333966;28;11894;-66
2023/08/08 00:19:16;;;;;;;0.95;0.50;;;;;;;16.25;69.34;99567.13;336910;28;4822;-67
2023/08/08 00:19:28;;;;;;;0.80;0.45;;;;;;;16.25;69.49;99564.50;336980;28;4482;-68
2023/08/08 00:19:40;;;;;;;0.90;0.40;;;;;;;16.24;69.15;99562.84;334915;28;18738;-66
2023/08/08 00:19:52;;;;;;;0.80;0.50;;;;;;;16.23;69.46;99555.88;337679;28;6517;-65
2023/08/08 00:20:04;;;;;;;0.77;0.50;;;;;;;16.23;69.40;99570.78;336773;28;4735;-65
2023/08/08 00:20:16;;;;;;;0.90;0.52;;;;;;;16.22;69.74;99566.47;329068;28;18394;-66
2023/08/08 00:20:28;;;;;;;0.88;0.60;;;;;;;16.20;69.69;99569.19;336605;28;5597;-66
2023/08/08 00:20:40;;;;;;;0.80;0.52;;;;;;;16.21;69.39;99567.41;334197;28;12108;-66
2023/08/08 00:20:52;;;;;;;0.50;0.45;;;;;;;16.21;69.20;99565.63;337227;28;4515;-66
2023/08/08 00:21:04;;;;;;;0.60;0.50;;;;;;;16.20;69.41;99565.69;336294;28;5397;-67
2023/08/08 00:21:16;;;;;;;0.90;0.70;;;;;;;16.20;69.42;99565.69;334107;28;18113;-65
2023/08/08 00:21:29;;;;;;;1.50;0.60;;;;;;;16.19;69.60;99562.25;337265;28;5229;-65
2023/08/08 00:21:41;;;;;;;1.13;0.45;;;;;;;16.18;69.62;99568.44;336524;28;10939;-66
2023/08/08 00:21:53;;;;;;;0.30;0.30;;;;;;;16.16;69.14;99562.44;328562;28;18451;-67
2023/08/08 00:22:05;;;;;;;0.47;0.47;;;;;;;16.15;69.13;99558.09;336499;28;5160;-66
2023/08/08 00:22:17;;;;;;;0.65;0.65;;;;;;;16.16;68.97;99570.31;328781;28;4697;-66
2023/08/08 00:22:29;;;;;;;0.80;0.70;;;;;;;16.13;69.25;99559.97;336786;28;4622;-67
2023/08/08 00:22:41;;;;;;;0.75;0.60;;;;;;;16.13;69.21;99560.81;333691;29;5248;-67
2023/08/08 00:22:53;;;;;;;0.55;0.50;;;;;;;16.12;68.98;99560.91;334917;28;5281;-68
2023/08/08 00:23:06;;;;;;;0.50;0.50;;;;;;;16.12;69.08;99564.38;335262;29;4606;-66
2023/08/08 00:23:18;;;;;;;0.85;0.50;;;;;;;16.11;69.04;99564.47;332538;28;18342;-66
2023/08/08 00:23:30;;;;;;;1.20;0.50;;;;;;;16.10;69.16;99568.03;336296;28;4999;-65
2023/08/08 00:23:42;;;;;;;0.98;0.50;;;;;;;16.08;69.18;99557.63;333023;28;18308;-67
2023/08/08 00:23:54;;;;;;;0.90;0.60;;;;;;;16.06;69.25;99559.50;334816;28;4739;-65
2023/08/08 00:24:06;;;;;;;1.20;0.60;;;;;;;16.06;69.24;99566.53;335148;29;4501;-65
2023/08/08 00:24:18;;;;;;;1.20;0.55;;;;;;;16.03;69.20;99559.66;332464;28;18220;-66
2023/08/08 00:24:30;;;;;;;0.90;0.60;;;;;;;16.04;69.39;99556.09;336709;28;4493;-66
2023/08/08 00:24:42;;;;;;;0.82;0.60;;;;;;;16.06;69.20;99564.72;336952;28;5592;-67
2023/08/08 00:24:54;;;;;;;0.63;0.60;;;;;;;16.06;69.13;99561.28;335396;28;17827;-66
2023/08/08 00:25:06;;;;;;;0.70;0.65;;;;;;;16.01;69.70;99558.06;336704;28;5044;-67
2023/08/08 00:25:19;;;;;;;1.13;0.73;;;;;;;16.04;69.37;99565.75;334980;28;4600;-66
2023/08/08 00:25:31;;;;;;;1.52;0.70;;;;;;;16.04;69.55;99563.13;336854;28;4852;-66
2023/08/08 00:25:43;;;;;;;1.40;0.70;;;;;;;16.06;69.68;99563.91;333810;28;16456;-66
2023/08/08 00:25:55;;;;;;;0.52;0.50;;;;;;;16.08;70.19;99559.41;338465;28;4481;-66
2023/08/08 00:26:07;;;;;;;0.68;0.50;;;;;;;16.11;70.32;99561.84;335261;28;5040;-65
2023/08/08 00:26:19;;;;;;;0.93;0.52;;;;;;;16.13;70.58;99565.22;334086;28;18276;-66
2023/08/08 00:26:31;;;;;;;0.80;0.50;;;;;;;16.14;70.34;99561.69;337126;28;4583;-66
2023/08/08 00:26:43;;;;;;;0.43;0.43;;;;;;;16.15;70.53;99558.09;334596;28;18271;-65
2023/08/08 00:26:55;;;;;;;0.50;0.45;;;;;;;16.16;70.51;99559.81;336582;28;4472;-67
2023/08/08 00:27:07;;;;;;;0.70;0.50;;;;;;;16.16;70.77;99554.56;336096;28;5247;-66
2023/08/08 00:27:20;;;;;;;0.60;0.50;;;;;;;16.17;70.61;99561.50;333787;28;18182;-66
2023/08/08 00:27:32;;;;;;;0.50;0.50;;;;;;;16.17;70.59;99561.50;335781;28;5026;-66
2023/08/08 00:27:44;;;;;;;0.40;0.40;;;;;;;16.17;70.84;99567.56;336810;28;18241;-66
2023/08/08 00:27:56;;;;;;;0.57;0.38;;;;;;;16.17;70.77;99558.88;334573;28;18160;-66
2023/08/08 00:28:08;;;;;;;0.60;0.40;;;;;;;16.17;70.57;99561.50;336685;28;4701;-66
2023/08/08 00:28:20;;;;;;;0.50;0.50;;;;;;;16.16;70.89;99563.28;334330;28;18619;-67
2023/08/08 00:28:32;;;;;;;0.50;0.50;;;;;;;16.16;70.91;99559.81;337408;28;4581;-66
2023/08/08 00:28:44;;;;;;;0.52;0.47;;;;;;;16.17;70.70;99561.50;335522;28;7061;-65
2023/08/08 00:28:56;;;;;;;0.68;0.50;;;;;;;16.17;70.83;99561.50;336374;28;4592;-67
2023/08/08 00:29:08;;;;;;;0.50;0.40;;;;;;;16.17;70.88;99561.50;328442;28;11839;-66
2023/08/08 00:29:20;;;;;;;0.38;0.38;;;;;;;16.15;70.92;99560.72;336558;28;4719;-66
2023/08/08 00:29:32;;;;;;;0.40;0.40;;;;;;;16.16;70.92;99560.66;337492;28;4962;-66
2023/08/08 00:29:45;;;;;;;0.40;0.40;;;;;;;16.15;70.86;99563.34;334473;28;18491;-66
2023/08/08 00:29:57;;;;;;;0.65;0.40;;;;;;;16.15;70.97;99558.09;336836;28;4675;-67
2023/08/08 00:30:15;;;;;;;0.82;0.50;;;;;;;16.14;70.98;99561.69;334531;28;17981;-66
2023/08/08 00:30:27;;;;;;;0.70;0.60;;;;;;;16.14;70.99;99562.53;333754;28;17712;-66
2023/08/08 00:30:39;;;;;;;0.60;0.52;;;;;;;16.14;71.07;99561.69;337105;28;4501;-65
2023/08/08 00:30:51;;;;;;;0.52;0.47;;;;;;;16.13;70.95;99560.81;334228;28;18461;-66
2023/08/08 00:31:03;;;;;;;0.50;0.45;;;;;;;16.11;71.26;99567.91;337629;28;4660;-66
2023/08/08 00:31:17;;;;;;;0.63;0.50;;;;;;;16.11;71.24;99567.09;333624;28;18781;-65
2023/08/08 00:31:29;;;;;;;0.70;0.57;;;;;;;16.12;71.05;99563.53;333664;28;6108;-66
2023/08/08 00:31:41;;;;;;;0.68;0.57;;;;;;;16.11;71.11;99564.47;335980;28;5866;-66
2023/08/08 00:31:53;;;;;;;0.68;0.57;;;;;;;16.12;70.99;99563.53;336112;28;5162;-66
2023/08/08 00:32:06;;;;;;;0.52;0.50;;;;;;;16.11;70.81;99561.84;332878;28;18557;-66
2023/08/08 00:32:18;;;;;;;0.68;0.50;;;;;;;16.12;71.17;99563.53;331907;28;4499;-67
2023/08/08 00:32:30;;;;;;;0.88;0.63;;;;;;;16.12;71.17;99563.53;337305;28;5235;-67
2023/08/08 00:32:42;;;;;;;2.00;0.70;;;;;;;16.11;71.01;99567.91;332351;28;19124;-67
2023/08/08 00:32:54;;;;;;;2.00;0.70;;;;;;;16.11;71.04;99561.84;337205;28;5244;-67
2023/08/08 00:33:06;;;;;;;1.30;0.43;;;;;;;16.11;71.27;99561.84;331202;28;17049;-65
2023/08/08 00:33:18;;;;;;;0.50;0.50;;;;;;;16.07;71.05;99565.56;335448;28;5345;-65
2023/08/08 00:33:30;;;;;;;0.65;0.50;;;;;;;16.07;71.13;99560.31;334693;28;4699;-67
2023/08/08 00:33:42;;;;;;;0.82;0.60;;;;;;;16.04;70.97;99566.59;333601;28;18481;-67
2023/08/08 00:33:54;;;;;;;1.35;0.55;;;;;;;16.02;71.03;99562.34;336786;28;4694;-66
2023/08/08 00:34:06;;;;;;;1.15;0.60;;;;;;;16.03;70.68;99561.44;333469;28;12895;-66
2023/08/08 00:34:18;;;;;;;0.95;0.52;;;;;;;16.02;70.64;99565.84;336219;28;4599;-67
2023/08/08 00:34:30;;;;;;;0.80;0.40;;;;;;;16.00;70.74;99566.84;335910;28;5270;-66
2023/08/08 00:34:42;;;;;;;0.93;0.47;;;;;;;15.98;71.55;99567.78;333512;28;18298;-66
2023/08/08 00:34:54;;;;;;;0.73;0.47;;;;;;;15.97;71.33;99565.25;335736;28;4798;-66
2023/08/08 00:35:07;;;;;;;0.90;0.50;;;;;;;15.97;71.70;99560.84;333788;28;12152;-66
2023/08/08 00:35:19;;;;;;;0.50;0.50;;;;;;;15.96;71.84;99569.66;332656;28;5333;-66
2023/08/08 00:35:31;;;;;;;0.50;0.50;;;;;;;15.96;71.80;99561.78;337114;28;5062;-66
2023/08/08 00:35:44;;;;;;;0.68;0.60;;;;;;;15.96;71.87;99561.78;333519;28;17503;-66
2023/08/08 00:35:56;;;;;;;0.70;0.65;;;;;;;15.97;71.82;99560.84;335622;28;4574;-65
2023/08/08 00:36:08;;;;;;;0.82;0.70;;;;;;;15.98;71.59;99567.78;335139;28;17216;-67
2023/08/08 00:36:20;;;;;;;0.73;0.60;;;;;;;16.00;72.04;99566.84;336652;28;5510;-66
2023/08/08 00:36:32;;;;;;;0.80;0.60;;;;;;;15.98;72.84;99565.16;329463;28;18246;-66
2023/08/08 00:36:44;;;;;;;0.60;0.52;;;;;;;15.95;73.20;99567.94;334831;28;18508;-66
2023/08/08 00:36:56;;;;;;;1.77;0.60;;;;;;;15.90;73.40;99564.75;329789;28;5183;-67
2023/08/08 00:37:08;;;;;;;1.65;0.50;;;;;;;15.88;73.48;99566.59;333668;28;17987;-67
2023/08/08 00:37:20;;;;;;;1.65;0.50;;;;;;;15.87;73.36;99567.53;336316;28;5411;-67
2023/08/08 00:37:32;;;;;;;0.40;0.40;;;;;;;15.85;74.42;99561.53;333389;28;18018;-65
2023/08/08 00:37:44;;;;;;;0.43;0.43;;;;;;;15.84;74.11;99565.09;336999;28;5532;-66
2023/08/08 00:37:56;;;;;;;1.00;0.40;;;;;;;15.85;73.57;99556.28;335838;28;4567;-67
2023/08/08 00:38:09;;;;;;;1.20;0.50;;;;;;;15.86;73.54;99563.22;328110;28;18711;-67
2023/08/08 00:38:21;;;;;;;1.20;0.52;;;;;;;15.87;73.30;99562.28;336294;28;5369;-67
2023/08/08 00:38:33;;;;;;;1.10;0.60;;;;;;;15.88;73.11;99556.13;333158;28;17897;-66
2023/08/08 00:38:45;;;;;;;0.85;0.50;;;;;;;15.89;73.12;99559.59;336209;28;4581;-67
2023/08/08 00:38:57;;;;;;;1.05;0.50;;;;;;;15.90;73.08;99564.75;337283;28;4560;-66
2023/08/08 00:39:09;;;;;;;1.13;0.60;;;;;;;15.91;72.97;99561.19;334017;28;18195;-65
2023/08/08 00:39:21;;;;;;;0.90;0.60;;;;;;;15.91;72.94;99557.72;337495;28;4557;-66
2023/08/08 00:39:33;;;;;;;1.00;0.70;;;;;;;15.91;73.19;99555.94;329278;28;18144;-67
2023/08/08 00:39:46;;;;;;;0.77;0.70;;;;;;;15.90;72.98;99554.25;335962;28;4573;-66
2023/08/08 00:39:58;;;;;;;0.55;0.52;;;;;;;15.91;73.14;99558.56;335488;28;11517;-67
2023/08/08 00:40:10;;;;;;;0.50;0.45;;;;;;;15.91;73.12;99558.56;336399;28;5478;-67
2023/08/08 00:40:22;;;;;;;0.70;0.50;;;;;;;15.91;72.94;99561.19;336309;28;4502;-68
2023/08/08 00:40:34;;;;;;;0.73;0.60;;;;;;;15.91;72.99;99560.34;333992;28;19505;-68
2023/08/08 00:40:46;;;;;;;0.82;0.60;;;;;;;15.91;72.79;99555.94;336857;28;4758;-67
2023/08/08 00:40:58;;;;;;;1.50;0.60;;;;;;;15.89;72.82;99552.56;336066;28;4808;-67
2023/08/08 00:41:10;;;;;;;1.52;0.55;;;;;;;15.89;72.78;99557.78;334382;28;18283;-66
2023/08/08 00:41:22;;;;;;;0.52;0.50;;;;;;;15.89;72.61;99557.78;336477;28;4750;-68
2023/08/08 00:41:34;;;;;;;0.50;0.50;;;;;;;15.86;72.84;99552.75;333313;28;19323;-66
2023/08/08 00:41:46;;;;;;;0.60;0.45;;;;;;;15.86;72.82;99565.84;336196;28;4466;-66
2023/08/08 00:41:58;;;;;;;0.50;0.40;;;;;;;15.86;72.82;99559.78;335811;28;4730;-68
2023/08/08 00:42:11;;;;;;;0.52;0.40;;;;;;;15.83;73.07;99566.00;334258;28;19223;-66
2023/08/08 00:42:22;;;;;;;0.57;0.50;;;;;;;15.82;72.79;99564.34;337454;28;4696;-67
2023/08/08 00:42:35;;;;;;;0.50;0.50;;;;;;;15.81;73.00;99560.00;334688;28;4525;-65
2023/08/08 00:42:47;;;;;;;0.40;0.40;;;;;;;15.77;73.30;99564.59;336777;28;5456;-66
2023/08/08 00:42:59;;;;;;;0.57;0.50;;;;;;;15.78;73.90;99565.44;336366;28;4498;-67
2023/08/08 00:43:11;;;;;;;0.77;0.60;;;;;;;15.76;74.38;99562.06;335527;28;17821;-67
2023/08/08 00:43:23;;;;;;;1.15;0.52;;;;;;;15.73;74.61;99557.81;337239;28;5541;-67
2023/08/08 00:43:35;;;;;;;1.08;0.50;;;;;;;15.71;74.37;99559.63;334725;28;18409;-67
2023/08/08 00:43:47;;;;;;;1.00;0.60;;;;;;;15.71;74.80;99564.88;336478;28;4994;-66
2023/08/08 00:43:59;;;;;;;0.63;0.60;;;;;;;15.70;75.24;99557.13;336249;28;4498;-67
2023/08/08 00:44:11;;;;;;;0.73;0.68;;;;;;;15.71;74.65;99553.56;334079;28;18263;-66
2023/08/08 00:44:23;;;;;;;0.88;0.65;;;;;;;15.73;74.60;99556.97;337688;28;5417;-65
2023/08/08 00:44:37;;;;;;;0.80;0.70;;;;;;;15.74;74.20;99558.66;334862;28;11058;-67
2023/08/08 00:44:49;;;;;;;1.50;0.60;;;;;;;15.71;74.63;99553.56;336683;28;4591;-67
2023/08/08 00:45:04;;;;;;;1.55;0.63;;;;;;;15.70;75.03;99557.97;334811;28;18509;-66
2023/08/08 00:45:16;;;;;;;2.03;0.70;;;;;;;15.69;75.29;99555.41;333700;28;17524;-67
2023/08/08 00:45:28;;;;;;;1.80;0.80;;;;;;;15.70;74.83;99557.13;337302;28;4487;-66
2023/08/08 00:45:44;;;;;;;0.80;0.70;;;;;;;15.71;74.44;99553.56;336974;28;4976;-68
2023/08/08 00:45:57;;;;;;;0.63;0.60;;;;;;;15.71;74.40;99550.94;333440;28;17889;-68
2023/08/08 00:46:10;;;;;;;0.75;0.60;;;;;;;15.73;74.22;99556.97;334798;28;4487;-67
2023/08/08 00:46:24;;;;;;;0.82;0.70;;;;;;;15.70;74.50;99557.13;332517;28;18040;-66
2023/08/08 00:46:36;;;;;;;0.95;0.70;;;;;;;15.71;75.33;99554.38;332830;28;18406;-68
2023/08/08 00:46:48;;;;;;;1.00;0.68;;;;;;;15.70;75.84;99557.13;335441;28;4654;-67
2023/08/08 00:47:01;;;;;;;0.82;0.57;;;;;;;15.70;75.90;99554.50;332726;28;11811;-67
2023/08/08 00:47:13;;;;;;;0.50;0.50;;;;;;;15.70;75.75;99557.13;335390;28;4564;-67
2023/08/08 00:47:25;;;;;;;0.80;0.70;;;;;;;15.70;75.80;99559.75;337215;28;5635;-66
2023/08/08 00:47:37;;;;;;;0.80;0.75;;;;;;;15.71;75.40;99553.56;334174;28;18423;-66
2023/08/08 00:47:49;;;;;;;0.70;0.60;;;;;;;15.72;75.40;99552.63;336384;28;4572;-66
2023/08/08 00:48:01;;;;;;;0.60;0.60;;;;;;;15.73;75.08;99556.97;332747;28;19269;-67
2023/08/08 00:48:14;;;;;;;0.50;0.50;;;;;;;15.70;75.08;99552.72;336680;28;5006;-66
2023/08/08 00:48:26;;;;;;;0.40;0.40;;;;;;;15.71;75.33;99556.19;333453;28;5010;-67
2023/08/08 00:48:38;;;;;;;0.60;0.57;;;;;;;15.72;75.40;99555.25;337390;28;5373;-68
2023/08/08 00:48:53;;;;;;;0.80;0.60;;;;;;;15.70;75.67;99551.88;337375;28;5218;-66
2023/08/08 00:49:05;;;;;;;0.60;0.50;;;;;;;15.70;75.75;99551.88;333169;28;18807;-66
2023/08/08 00:49:17;;;;;;;0.50;0.50;;;;;;;15.67;75.86;99552.88;336708;28;4510;-67
2023/08/08 00:49:29;;;;;;;0.65;0.50;;;;;;;15.70;75.57;99557.97;335544;28;4610;-66
2023/08/08 00:49:44;;;;;;;1.17;0.60;;;;;;;15.70;75.45;99557.13;333473;28;17971;-66
2023/08/08 00:49:56;;;;;;;1.27;0.50;;;;;;;15.70;75.41;99551.88;335281;28;5354;-67
2023/08/08 00:50:10;;;;;;;0.70;0.57;;;;;;;15.70;75.76;99554.50;334271;28;16654;-67
2023/08/08 00:50:23;;;;;;;0.95;0.60;;;;;;;15.69;75.91;99560.66;333225;28;18862;-68
2023/08/08 00:50:36;;;;;;;0.88;0.60;;;;;;;15.68;76.17;99553.75;335957;28;4650;-68
2023/08/08 00:50:50;;;;;;;0.68;0.60;;;;;;;15.68;75.75;99556.38;335124;28;17856;-67
2023/08/08 00:51:02;;;;;;;0.80;0.63;;;;;;;15.66;76.56;99552.97;334473;28;17373;-68
2023/08/08 00:51:15;;;;;;;0.65;0.55;;;;;;;15.66;76.57;99550.38;337284;28;5493;-67
2023/08/08 00:51:27;;;;;;;0.50;0.45;;;;;;;15.65;77.08;99553.91;335032;28;12025;-67
2023/08/08 00:51:39;;;;;;;0.50;0.50;;;;;;;15.66;76.67;99555.59;337021;28;4938;-66
2023/08/08 00:51:51;;;;;;;0.60;0.50;;;;;;;15.65;76.44;99553.91;337250;28;4640;-68
2023/08/08 00:52:04;;;;;;;1.10;0.68;;;;;;;15.64;76.56;99547.81;334290;28;18015;-67
2023/08/08 00:52:16;;;;;;;1.02;0.57;;;;;;;15.63;76.85;99550.50;337155;28;4819;-67
2023/08/08 00:52:29;;;;;;;0.93;0.60;;;;;;;15.62;76.71;99552.28;334056;28;18327;-67
2023/08/08 00:52:42;;;;;;;0.60;0.50;;;;;;;15.64;76.66;99547.81;336381;28;5308;-67
2023/08/08 00:52:54;;;;;;;0.63;0.47;;;;;;;15.64;76.33;99542.56;329771;28;17523;-66
2023/08/08 00:53:06;;;;;;;0.70;0.40;;;;;;;15.65;76.33;99548.66;335881;28;5233;-68
2023/08/08 00:53:19;;;;;;;0.75;0.50;;;;;;;15.66;76.05;99550.38;333414;28;18431;-67
2023/08/08 00:53:31;;;;;;;1.15;0.63;;;;;;;15.67;75.92;99552.03;337218;28;5318;-67
2023/08/08 00:53:44;;;;;;;1.70;0.70;;;;;;;15.69;75.86;99544.94;333615;28;4644;-67
2023/08/08 00:53:56;;;;;;;1.07;0.70;;;;;;;15.68;75.75;99543.25;336170;28;4668;-67
2023/08/08 00:54:10;;;;;;;0.70;0.60;;;;;;;15.67;75.84;99546.78;329715;28;17957;-66
2023/08/08 00:54:22;;;;;;;1.15;0.68;;;;;;;15.67;75.56;99552.03;337269;28;4664;-66
2023/08/08 00:54:34;;;;;;;1.10;0.70;;;;;;;15.67;75.60;99549.41;332315;28;17962;-66
2023/08/08 00:54:46;;;;;;;0.82;0.68;;;;;;;15.69;75.72;99547.56;335674;28;4610;-66
2023/08/08 00:54:59;;;;;;;0.70;0.60;;;;;;;15.68;75.59;99551.13;334209;28;16421;-67
2023/08/08 00:55:11;;;;;;;1.00;0.60;;;;;;;15.67;75.75;99544.19;337628;28;4671;-67
2023/08/08 00:55:23;;;;;;;1.30;0.57;;;;;;;15.67;75.36;99552.03;335014;28;17773;-66
2023/08/08 00:55:36;;;;;;;2.38;0.70;;;;;;;15.66;75.79;99545.97;336174;28;4741;-66
2023/08/08 00:55:48;;;;;;;2.30;0.80;;;;;;;15.65;75.99;99548.66;336348;28;5552;-66
2023/08/08 00:56:00;;;;;;;0.80;0.70;;;;;;;15.65;75.90;99549.50;333909;28;19155;-67
2023/08/08 00:56:13;;;;;;;0.70;0.70;;;;;;;15.63;76.03;99545.28;337542;28;4599;-67
2023/08/08 00:56:25;;;;;;;1.05;0.70;;;;;;;15.62;76.14;99554.09;331023;28;18235;-66
2023/08/08 00:56:38;;;;;;;1.00;0.70;;;;;;;15.61;76.10;99547.13;337600;28;4856;-66
2023/08/08 00:56:50;;;;;;;0.80;0.70;;;;;;;15.59;76.28;99549.84;333925;28;17859;-66
2023/08/08 00:57:02;;;;;;;0.80;0.70;;;;;;;15.56;76.67;99545.63;336303;28;4528;-66
2023/08/08 00:57:14;;;;;;;0.80;0.70;;;;;;;15.57;77.36;99549.94;333819;28;4733;-67
2023/08/08 00:57:26;;;;;;;1.67;0.80;;;;;;;15.56;77.35;99550.00;338268;28;5050;-67
2023/08/08 00:57:38;;;;;;;2.30;0.80;;;;;;;15.56;77.26;99550.00;335389;28;11979;-67
2023/08/08 00:57:51;;;;;;;2.80;0.98;;;;;;;15.55;77.47;99549.19;334787;28;17298;-67
2023/08/08 00:58:04;;;;;;;1.80;0.88;;;;;;;15.56;77.02;99550.84;336892;28;4592;-67
2023/08/08 00:58:16;;;;;;;1.17;0.80;;;;;;;15.58;76.70;99550.78;334826;28;18964;-66
2023/08/08 00:58:28;;;;;;;2.03;0.70;;;;;;;15.62;76.63;99554.09;336835;28;4642;-66
2023/08/08 00:58:40;;;;;;;1.65;0.70;;;;;;;15.62;76.42;99549.69;332590;28;18297;-67
2023/08/08 00:58:52;;;;;;;1.52;0.60;;;;;;;15.63;76.54;99547.91;332721;28;16630;-66